Red Owl, South Dakota
Current Conditions -  °F | °C
As of 10:58 PM on Saturday 22 Nov 2014 (Local Time) from KRCA Reporting Station
Broken Clouds Broken Clouds  
Wind Chill: 29°   Ceiling: 11000
Heat Index: 38°   Visibility: 10mi
Dew Point: 33°   Wind: 18mph
Humidity: 81%   Direction: 330°NNW
Pressure: 29.5"   Gusts: 28mph
Location:  44.7°N, 102.55°W
Report Text: KRCA 230558Z AUTO 33016G24KT 10SM SCT085 BKN110 04/01 A2950 RMK AO2 PK WND 32027/57 CIG 090 RWY13 SLP996 60000 T00350006 10077 20028 52028 $
Loading
Personal Weather Stations






























Interactive Weather Map New forecast layout! Learn more

10-Day Weather Forecast

Advertisements
Track Severe Weather on mobile